createdAt,value
2023-05-11T05:03:20.965Z,95608.00
2023-05-11T05:04:20.956Z,95611.00
2023-05-11T05:05:21.920Z,95611.00
2023-05-11T05:06:21.971Z,95611.00
2023-05-11T05:07:21.984Z,95610.00
2023-05-11T05:08:22.046Z,95611.00
2023-05-11T05:09:22.061Z,95613.00
2023-05-11T05:10:22.117Z,95610.00
2023-05-11T05:11:22.155Z,95610.00
2023-05-11T05:12:22.178Z,95611.00
2023-05-11T05:13:21.280Z,95610.00
2023-05-11T05:14:22.298Z,95610.00
2023-05-11T05:15:21.276Z,95611.00
2023-05-11T05:16:21.381Z,95611.00
2023-05-11T05:17:21.325Z,95611.00
2023-05-11T05:18:22.365Z,95611.00
2023-05-11T05:19:22.381Z,95611.00
2023-05-11T05:20:21.410Z,95615.00
2023-05-11T05:21:22.393Z,95615.00
2023-05-11T05:22:22.385Z,95613.00
2023-05-11T05:23:21.408Z,95613.00
2023-05-11T05:24:22.399Z,95617.00
2023-05-11T05:25:22.397Z,95615.00
2023-05-11T05:26:21.421Z,95617.00
2023-05-11T05:27:22.440Z,95619.00
2023-05-11T05:28:22.482Z,95615.00
2023-05-11T05:29:22.477Z,95621.00
2023-05-11T05:30:22.453Z,95621.00
2023-05-11T05:31:21.497Z,95619.00
2023-05-11T05:32:22.449Z,95623.00
2023-05-11T05:33:22.457Z,95621.00
2023-05-11T05:34:22.627Z,95623.00
2023-05-11T05:35:22.552Z,95623.00
2023-05-11T05:36:22.554Z,95619.00
2023-05-11T05:37:21.582Z,95623.00
2023-05-11T05:38:22.621Z,95623.00
2023-05-11T05:39:21.625Z,95623.00
2023-05-11T05:40:21.801Z,95619.00
2023-05-11T05:41:22.659Z,95619.00
2023-05-11T05:42:21.690Z,95623.00
2023-05-11T05:43:21.660Z,95625.00
2023-05-11T05:44:21.754Z,95625.00
2023-05-11T05:45:21.668Z,95623.00
2023-05-11T05:46:22.730Z,95625.00
2023-05-11T05:47:21.649Z,95623.00
2023-05-11T05:48:22.632Z,95625.00
2023-05-11T05:49:22.658Z,95627.00
2023-05-11T05:50:22.669Z,95623.00
2023-05-11T05:51:22.700Z,95629.00
2023-05-11T05:52:22.748Z,95625.00
2023-05-11T05:53:21.688Z,95625.00
2023-05-11T05:54:22.691Z,95627.00
2023-05-11T05:55:21.771Z,95627.00
2023-05-11T05:56:21.860Z,95627.00
2023-05-11T05:57:22.855Z,95627.00
2023-05-11T05:58:22.920Z,95627.00
2023-05-11T05:59:23.111Z,95627.00
2023-05-11T06:00:22.007Z,95627.00
2023-05-11T06:01:23.074Z,95631.00
2023-05-11T06:02:22.177Z,95633.00
2023-05-11T06:03:23.265Z,95633.00
2023-05-11T06:04:22.234Z,95631.00
2023-05-11T06:05:23.265Z,95635.00
2023-05-11T06:06:23.274Z,95637.00
2023-05-11T06:07:23.324Z,95635.00
2023-05-11T06:08:22.443Z,95635.00
2023-05-11T06:09:23.357Z,95637.00
2023-05-11T06:10:22.412Z,95633.00
2023-05-11T06:11:22.454Z,95633.00
2023-05-11T06:12:22.468Z,95637.00
2023-05-11T06:13:22.510Z,95635.00
2023-05-11T06:14:23.515Z,95631.00
2023-05-11T06:15:22.525Z,95637.00
2023-05-11T06:16:23.642Z,95633.00
2023-05-11T06:17:22.680Z,95635.00
2023-05-11T06:18:22.813Z,95635.00
2023-05-11T06:19:23.746Z,95635.00
2023-05-11T06:20:22.763Z,95639.00
2023-05-11T06:21:24.047Z,95637.00
2023-05-11T06:22:22.784Z,95637.00
2023-05-11T06:23:23.798Z,95637.00
2023-05-11T06:24:22.773Z,95633.00
2023-05-11T06:25:22.775Z,95631.00
2023-05-11T06:26:22.780Z,95637.00
2023-05-11T06:27:22.832Z,95635.00
2023-05-11T06:28:22.789Z,95635.00
2023-05-11T06:29:22.826Z,95637.00
2023-05-11T06:30:23.850Z,95633.00
2023-05-11T06:31:23.889Z,95635.00
2023-05-11T06:32:23.911Z,95633.00
2023-05-11T06:33:23.927Z,95627.00
2023-05-11T06:34:23.929Z,95627.00
2023-05-11T06:35:23.966Z,95627.00
2023-05-11T06:36:24.033Z,95629.00
2023-05-11T06:37:23.105Z,95631.00
2023-05-11T06:38:23.160Z,95629.00
2023-05-11T06:39:23.239Z,95627.00
2023-05-11T06:40:24.402Z,95627.00
2023-05-11T06:41:23.311Z,95625.00
2023-05-11T06:42:23.383Z,95629.00
2023-05-11T06:43:24.438Z,95623.00
2023-05-11T06:44:23.443Z,95629.00
2023-05-11T06:45:24.551Z,95627.00
2023-05-11T06:46:24.592Z,95629.00
2023-05-11T06:47:24.566Z,95629.00
2023-05-11T06:48:24.574Z,95625.00
2023-05-11T06:49:24.567Z,95627.00
2023-05-11T06:50:25.789Z,95629.00
2023-05-11T06:51:24.632Z,95631.00
2023-05-11T06:52:24.552Z,95625.00
2023-05-11T06:53:23.622Z,95631.00
2023-05-11T06:54:23.535Z,95627.00
2023-05-11T06:55:24.587Z,95629.00
2023-05-11T06:56:23.526Z,95633.00
2023-05-11T06:57:25.002Z,95633.00
2023-05-11T06:58:24.528Z,95629.00
2023-05-11T06:59:24.512Z,95631.00
2023-05-11T07:00:24.518Z,95629.00
2023-05-11T07:01:24.538Z,95633.00
2023-05-11T07:02:24.626Z,95631.00
2023-05-11T07:03:23.481Z,95631.00
2023-05-11T07:04:24.630Z,95633.00
2023-05-11T07:05:24.440Z,95629.00
2023-05-11T07:06:24.506Z,95629.00
2023-05-11T07:07:24.454Z,95629.00
2023-05-11T07:08:24.431Z,95629.00
2023-05-11T07:09:24.470Z,95633.00
2023-05-11T07:10:23.462Z,95627.00
2023-05-11T07:11:24.469Z,95629.00
2023-05-11T07:12:23.407Z,95629.00
2023-05-11T07:13:23.515Z,95629.00
2023-05-11T07:14:24.404Z,95629.00
2023-05-11T07:15:24.399Z,95627.00
2023-05-11T07:16:23.413Z,95629.00
2023-05-11T07:17:24.479Z,95629.00
2023-05-11T07:18:23.480Z,95631.00
2023-05-11T07:19:24.511Z,95629.00
2023-05-11T07:20:24.359Z,95629.00
2023-05-11T07:21:24.344Z,95631.00
2023-05-11T07:22:23.365Z,95635.00
2023-05-11T07:23:23.339Z,95635.00
2023-05-11T07:24:23.317Z,95633.00
2023-05-11T07:25:24.331Z,95633.00
2023-05-11T07:26:24.376Z,95633.00
2023-05-11T07:27:24.320Z,95633.00
2023-05-11T07:28:24.299Z,95631.00
2023-05-11T07:29:23.321Z,95633.00
2023-05-11T07:30:24.762Z,95631.00
2023-05-11T07:31:24.299Z,95633.00
2023-05-11T07:32:24.372Z,95631.00
2023-05-11T07:33:24.302Z,95633.00
2023-05-11T07:34:24.247Z,95633.00
2023-05-11T07:35:24.469Z,95633.00
2023-05-11T07:36:23.231Z,95633.00
2023-05-11T07:37:23.229Z,95633.00
2023-05-11T07:38:24.204Z,95633.00
2023-05-11T07:39:24.260Z,95633.00
2023-05-11T07:40:24.216Z,95631.00
2023-05-11T07:41:23.196Z,95631.00
2023-05-11T07:42:23.201Z,95631.00
2023-05-11T07:43:24.214Z,95629.00
2023-05-11T07:44:24.208Z,95633.00
2023-05-11T07:45:23.254Z,95631.00
2023-05-11T07:46:24.611Z,95631.00
2023-05-11T07:47:24.545Z,95633.00
2023-05-11T07:48:24.256Z,95631.00
2023-05-11T07:49:35.218Z,95635.00
2023-05-11T07:50:24.831Z,95635.00
2023-05-11T07:51:24.236Z,95633.00
2023-05-11T07:52:24.689Z,95637.00
2023-05-11T07:53:24.224Z,95637.00
2023-05-11T07:54:24.239Z,95633.00
2023-05-11T07:55:23.201Z,95633.00
2023-05-11T07:56:24.203Z,95633.00
2023-05-11T07:57:24.281Z,95631.00
2023-05-11T07:58:24.195Z,95633.00
2023-05-11T07:59:24.202Z,95635.00
2023-05-11T08:00:24.226Z,95631.00
2023-05-11T08:01:24.164Z,95633.00
2023-05-11T08:02:23.223Z,95631.00
2023-05-11T08:03:23.296Z,95631.00
2023-05-11T08:04:23.162Z,95629.00
2023-05-11T08:05:23.224Z,95629.00
2023-05-11T08:06:23.321Z,95631.00
2023-05-11T08:07:24.218Z,95631.00
2023-05-11T08:08:24.202Z,95631.00
2023-05-11T08:09:23.462Z,95629.00
2023-05-11T08:10:24.298Z,95627.00
2023-05-11T08:11:23.262Z,95631.00
2023-05-11T08:12:23.277Z,95631.00
2023-05-11T08:13:25.848Z,95631.00
2023-05-11T08:14:23.452Z,95627.00
2023-05-11T08:15:23.471Z,95629.00
2023-05-11T08:16:23.484Z,95629.00
2023-05-11T08:17:23.460Z,95629.00
2023-05-11T08:18:23.529Z,95631.00
2023-05-11T08:19:23.480Z,95629.00
2023-05-11T08:20:24.448Z,95631.00
2023-05-11T08:21:23.433Z,95631.00
2023-05-11T08:22:24.457Z,95629.00
2023-05-11T08:23:24.448Z,95627.00
2023-05-11T08:24:23.511Z,95629.00
2023-05-11T08:25:24.478Z,95629.00
2023-05-11T08:26:23.456Z,95625.00
2023-05-11T08:27:24.456Z,95623.00
2023-05-11T08:28:24.489Z,95625.00
2023-05-11T08:29:24.500Z,95621.00
2023-05-11T08:30:23.577Z,95625.00
2023-05-11T08:31:23.629Z,95627.00
2023-05-11T08:32:23.585Z,95625.00
2023-05-11T08:34:23.747Z,95623.00
2023-05-11T08:35:24.681Z,95627.00
2023-05-11T08:36:24.550Z,95623.00
2023-05-11T08:37:24.551Z,95623.00
2023-05-11T08:38:24.548Z,95625.00
2023-05-11T08:39:43.308Z,95623.00
2023-05-11T08:40:24.537Z,95629.00
2023-05-11T08:41:24.551Z,95625.00
2023-05-11T08:42:23.526Z,95625.00
2023-05-11T08:43:24.525Z,95623.00
2023-05-11T08:44:24.494Z,95623.00
2023-05-11T08:45:23.503Z,95625.00
2023-05-11T08:46:24.509Z,95625.00
2023-05-11T08:47:24.042Z,95625.00
2023-05-11T08:48:24.499Z,95625.00
2023-05-11T08:49:24.482Z,95625.00
2023-05-11T08:50:23.565Z,95625.00
2023-05-11T08:51:24.569Z,95619.00
2023-05-11T08:52:24.618Z,95623.00
2023-05-11T08:53:24.657Z,95625.00
2023-05-11T08:54:24.726Z,95619.00
2023-05-11T08:55:24.696Z,95619.00
2023-05-11T08:56:23.701Z,95617.00
2023-05-11T08:57:25.040Z,95619.00
2023-05-11T08:58:24.758Z,95621.00
2023-05-11T08:59:23.772Z,95619.00
2023-05-11T09:00:23.844Z,95615.00
2023-05-11T09:01:24.896Z,95613.00
2023-05-11T09:02:24.928Z,95610.00
2023-05-11T09:03:23.975Z,95610.00
2023-05-11T09:04:25.017Z,95611.00
2023-05-11T09:05:24.053Z,95613.00
2023-05-11T09:06:24.014Z,95610.00
2023-05-11T09:07:24.003Z,95610.00
2023-05-11T09:08:25.033Z,95610.00
2023-05-11T09:09:25.043Z,95610.00
2023-05-11T09:10:25.049Z,95606.00
2023-05-11T09:11:25.084Z,95611.00
2023-05-11T09:12:24.168Z,95610.00
2023-05-11T09:13:25.170Z,95606.00
2023-05-11T09:14:27.864Z,95610.00
2023-05-11T09:15:24.194Z,95604.00
2023-05-11T09:16:36.853Z,95606.00
2023-05-11T09:17:25.222Z,95606.00
2023-05-11T09:18:25.189Z,95610.00
2023-05-11T09:19:24.201Z,95606.00
2023-05-11T09:20:24.149Z,95608.00
2023-05-11T09:21:25.155Z,95606.00
2023-05-11T09:22:24.134Z,95606.00
2023-05-11T09:23:24.123Z,95610.00
2023-05-11T09:24:24.141Z,95608.00
2023-05-11T09:25:25.085Z,95611.00
2023-05-11T09:26:25.089Z,95613.00
2023-05-11T09:27:24.083Z,95611.00
2023-05-11T09:28:26.053Z,95611.00
2023-05-11T09:29:30.379Z,95613.00
2023-05-11T09:30:25.084Z,95613.00
2023-05-11T09:31:25.109Z,95615.00
2023-05-11T09:32:25.081Z,95615.00
2023-05-11T09:33:25.062Z,95611.00
2023-05-11T09:34:24.043Z,95610.00
2023-05-11T09:35:25.047Z,95611.00
2023-05-11T09:36:24.041Z,95611.00
2023-05-11T09:37:24.026Z,95611.00
2023-05-11T09:38:25.021Z,95615.00
2023-05-11T09:39:35.435Z,95613.00
2023-05-11T09:40:27.636Z,95611.00
2023-05-11T09:41:24.998Z,95611.00
2023-05-11T09:42:24.991Z,95610.00
2023-05-11T09:43:24.982Z,95611.00
2023-05-11T09:44:24.967Z,95610.00
2023-05-11T09:45:24.973Z,95611.00
2023-05-11T09:46:25.105Z,95611.00
2023-05-11T09:47:24.952Z,95610.00
2023-05-11T09:48:25.030Z,95608.00
2023-05-11T09:49:24.933Z,95611.00
2023-05-11T09:50:26.652Z,95611.00
2023-05-11T09:51:24.931Z,95611.00
2023-05-11T09:52:23.926Z,95608.00
2023-05-11T09:53:26.715Z,95608.00
2023-05-11T09:54:24.892Z,95610.00
2023-05-11T09:55:24.890Z,95610.00
2023-05-11T09:56:24.883Z,95606.00
2023-05-11T09:57:23.867Z,95608.00
2023-05-11T09:58:24.876Z,95608.00
2023-05-11T09:59:25.706Z,95604.00
2023-05-11T10:00:24.096Z,95608.00
2023-05-11T10:01:24.144Z,95606.00
2023-05-11T10:02:24.295Z,95600.00
2023-05-11T10:03:25.304Z,95600.00
2023-05-11T10:04:24.385Z,95602.00
2023-05-11T10:05:25.222Z,95598.00
2023-05-11T10:06:25.199Z,95598.00
2023-05-11T10:07:24.334Z,95598.00
2023-05-11T10:08:24.238Z,95600.00
2023-05-11T10:09:25.272Z,95598.00
2023-05-11T10:10:25.326Z,95602.00
2023-05-11T10:11:26.152Z,95604.00
2023-05-11T10:12:25.305Z,95598.00
2023-05-11T10:13:25.451Z,95598.00
2023-05-11T10:14:24.354Z,95596.00
2023-05-11T10:15:25.365Z,95596.00
2023-05-11T10:16:25.393Z,95594.00
2023-05-11T10:17:24.405Z,95594.00
2023-05-11T10:18:25.476Z,95594.00
2023-05-11T10:19:25.510Z,95596.00
2023-05-11T10:20:25.568Z,95594.00
2023-05-11T10:21:25.630Z,95596.00
2023-05-11T10:22:24.831Z,95594.00
2023-05-11T10:23:25.788Z,95596.00
2023-05-11T10:24:24.776Z,95592.00
2023-05-11T10:25:24.826Z,95594.00
2023-05-11T10:26:24.890Z,95594.00
2023-05-11T10:27:24.996Z,95592.00
2023-05-11T10:28:25.010Z,95588.00
2023-05-11T10:29:25.068Z,95590.00
2023-05-11T10:30:25.124Z,95590.00
2023-05-11T10:31:25.198Z,95586.00
2023-05-11T10:32:26.250Z,95586.00
2023-05-11T10:33:26.260Z,95586.00
2023-05-11T10:34:25.352Z,95586.00
2023-05-11T10:35:26.355Z,95582.00
2023-05-11T10:36:26.350Z,95584.00
2023-05-11T10:37:26.382Z,95586.00
2023-05-11T10:38:26.430Z,95582.00
2023-05-11T10:39:26.456Z,95580.00
2023-05-11T10:40:26.455Z,95578.00
2023-05-11T10:41:26.474Z,95578.00
2023-05-11T10:42:26.495Z,95582.00
2023-05-11T10:43:26.642Z,95578.00
2023-05-11T10:44:26.562Z,95578.00
2023-05-11T10:45:26.588Z,95580.00
2023-05-11T10:46:29.582Z,95574.00
2023-05-11T10:47:25.626Z,95576.00
2023-05-11T10:48:26.684Z,95572.00
2023-05-11T10:49:25.614Z,95574.00
2023-05-11T10:50:25.622Z,95570.00
2023-05-11T10:51:26.626Z,95572.00
2023-05-11T10:52:26.746Z,95568.00
2023-05-11T10:53:26.572Z,95568.00
2023-05-11T10:54:26.577Z,95570.00
2023-05-11T10:55:25.594Z,95566.00
2023-05-11T10:56:26.577Z,95566.00
2023-05-11T10:57:26.553Z,95566.00
2023-05-11T10:58:26.623Z,95566.00
2023-05-11T10:59:26.543Z,95564.00
2023-05-11T11:00:26.625Z,95563.00
2023-05-11T11:01:25.584Z,95563.00
2023-05-11T11:02:26.543Z,95561.00
2023-05-11T11:03:25.516Z,95559.00
2023-05-11T11:04:28.141Z,95559.00
2023-05-11T11:05:26.555Z,95559.00
2023-05-11T11:06:26.510Z,95553.00
2023-05-11T11:07:26.479Z,95557.00
2023-05-11T11:08:26.521Z,95557.00
2023-05-11T11:09:25.522Z,95557.00
2023-05-11T11:10:26.493Z,95559.00
2023-05-11T11:11:25.491Z,95555.00
2023-05-11T11:12:26.475Z,95557.00
2023-05-11T11:13:25.453Z,95555.00
2023-05-11T11:14:26.458Z,95555.00
2023-05-11T11:15:26.428Z,95559.00
2023-05-11T11:16:26.461Z,95555.00
2023-05-11T11:17:26.437Z,95555.00
2023-05-11T11:18:26.561Z,95555.00
2023-05-11T11:19:25.398Z,95551.00
2023-05-11T11:20:26.389Z,95553.00
2023-05-11T11:21:26.273Z,95553.00
2023-05-11T11:22:25.392Z,95555.00
2023-05-11T11:23:25.381Z,95555.00
2023-05-11T11:24:25.374Z,95557.00
2023-05-11T11:25:25.360Z,95549.00
2023-05-11T11:26:26.387Z,95553.00
2023-05-11T11:27:29.450Z,95551.00
2023-05-11T11:28:26.350Z,95553.00
2023-05-11T11:29:26.498Z,95551.00
2023-05-11T11:30:26.328Z,95551.00
2023-05-11T11:31:26.550Z,95545.00
2023-05-11T11:32:26.416Z,95547.00
2023-05-11T11:33:26.308Z,95545.00
2023-05-11T11:34:25.330Z,95547.00
2023-05-11T11:35:25.322Z,95543.00
2023-05-11T11:36:26.328Z,95547.00
2023-05-11T11:37:26.363Z,95547.00
2023-05-11T11:38:29.231Z,95543.00
2023-05-11T11:39:25.615Z,95547.00
2023-05-11T11:40:25.358Z,95549.00
2023-05-11T11:41:25.456Z,95547.00
2023-05-11T11:42:25.358Z,95543.00
2023-05-11T11:43:26.361Z,95545.00
2023-05-11T11:44:26.335Z,95545.00
2023-05-11T11:45:25.323Z,95541.00
2023-05-11T11:46:26.376Z,95543.00
2023-05-11T11:47:26.498Z,95543.00
2023-05-11T11:48:25.318Z,95545.00
2023-05-11T11:49:26.317Z,95543.00
2023-05-11T11:50:26.291Z,95543.00
2023-05-11T11:51:26.319Z,95543.00
2023-05-11T11:52:26.270Z,95543.00
2023-05-11T11:53:26.270Z,95541.00
2023-05-11T11:54:26.283Z,95543.00
2023-05-11T11:55:26.293Z,95541.00
2023-05-11T11:56:25.278Z,95541.00
2023-05-11T11:57:26.254Z,95541.00
2023-05-11T11:58:25.275Z,95541.00
2023-05-11T11:59:25.268Z,95541.00
2023-05-11T12:00:26.217Z,95541.00
2023-05-11T12:01:26.217Z,95541.00
2023-05-11T12:02:26.392Z,95535.00
2023-05-11T12:03:26.405Z,95539.00
2023-05-11T12:04:26.369Z,95541.00
2023-05-11T12:05:26.300Z,95543.00
2023-05-11T12:06:26.668Z,95541.00
2023-05-11T12:07:26.217Z,95539.00
2023-05-11T12:08:25.151Z,95541.00
2023-05-11T12:09:25.172Z,95537.00
2023-05-11T12:10:26.166Z,95539.00
2023-05-11T12:11:26.175Z,95539.00
2023-05-11T12:12:26.132Z,95541.00
2023-05-11T12:13:25.132Z,95541.00
2023-05-11T12:14:26.108Z,95543.00
2023-05-11T12:15:25.136Z,95541.00
2023-05-11T12:16:25.223Z,95541.00
2023-05-11T12:17:25.289Z,95537.00
2023-05-11T12:18:26.224Z,95543.00
2023-05-11T12:19:26.316Z,95541.00
2023-05-11T12:20:26.426Z,95539.00
2023-05-11T12:21:26.354Z,95541.00
2023-05-11T12:22:26.395Z,95539.00
2023-05-11T12:23:26.402Z,95541.00
2023-05-11T12:24:26.493Z,95541.00
2023-05-11T12:25:25.467Z,95543.00
2023-05-11T12:26:26.558Z,95541.00
2023-05-11T12:27:25.533Z,95541.00
2023-05-11T12:28:26.572Z,95543.00
2023-05-11T12:29:26.658Z,95543.00
2023-05-11T12:30:25.625Z,95539.00
2023-05-11T12:31:26.701Z,95539.00
2023-05-11T12:32:26.779Z,95543.00
2023-05-11T12:33:26.700Z,95537.00
2023-05-11T12:34:25.724Z,95537.00
2023-05-11T12:35:26.743Z,95537.00
2023-05-11T12:36:25.752Z,95537.00
2023-05-11T12:37:25.787Z,95533.00
2023-05-11T12:38:25.804Z,95535.00
2023-05-11T12:39:26.817Z,95533.00
2023-05-11T12:40:26.832Z,95531.00
2023-05-11T12:41:25.879Z,95533.00
2023-05-11T12:42:25.899Z,95529.00
2023-05-11T12:43:26.920Z,95529.00
2023-05-11T12:44:26.945Z,95529.00
2023-05-11T12:45:26.929Z,95529.00
2023-05-11T12:46:25.982Z,95527.00
2023-05-11T12:47:27.024Z,95529.00
2023-05-11T12:48:26.038Z,95525.00
2023-05-11T12:49:27.312Z,95531.00
2023-05-11T12:50:27.067Z,95529.00
2023-05-11T12:51:27.072Z,95525.00
2023-05-11T12:52:26.082Z,95525.00
2023-05-11T12:53:27.087Z,95523.00
2023-05-11T12:54:26.119Z,95527.00
2023-05-11T12:55:26.123Z,95527.00
2023-05-11T12:56:26.145Z,95525.00
2023-05-11T12:57:27.162Z,95525.00
2023-05-11T12:58:26.243Z,95527.00
2023-05-11T12:59:26.204Z,95523.00
2023-05-11T13:00:26.220Z,95525.00
2023-05-11T13:01:26.359Z,95517.00
2023-05-11T13:02:26.307Z,95519.00
2023-05-11T13:03:26.410Z,95523.00
2023-05-11T13:04:27.285Z,95516.00
2023-05-11T13:05:27.317Z,95519.00
2023-05-11T13:06:27.315Z,95519.00
2023-05-11T13:07:26.365Z,95519.00
2023-05-11T13:08:27.364Z,95517.00
2023-05-11T13:09:26.388Z,95519.00
2023-05-11T13:10:27.407Z,95517.00
2023-05-11T13:11:27.412Z,95516.00
2023-05-11T13:12:26.412Z,95517.00
2023-05-11T13:13:27.485Z,95514.00
2023-05-11T13:14:27.468Z,95516.00
2023-05-11T13:15:27.450Z,95512.00
2023-05-11T13:16:27.527Z,95512.00
2023-05-11T13:17:26.514Z,95514.00
2023-05-11T13:18:26.549Z,95514.00
2023-05-11T13:19:27.574Z,95512.00
2023-05-11T13:20:27.639Z,95508.00
2023-05-11T13:21:27.553Z,95508.00
2023-05-11T13:22:26.557Z,95510.00
2023-05-11T13:23:26.624Z,95510.00
2023-05-11T13:24:27.624Z,95512.00
2023-05-11T13:25:26.609Z,95510.00
2023-05-11T13:26:27.634Z,95508.00
2023-05-11T13:27:27.676Z,95506.00
2023-05-11T13:28:26.666Z,95506.00
2023-05-11T13:29:26.709Z,95506.00
2023-05-11T13:30:26.705Z,95506.00
2023-05-11T13:31:26.768Z,95506.00
2023-05-11T13:32:26.738Z,95506.00
2023-05-11T13:33:26.747Z,95506.00
2023-05-11T13:34:26.802Z,95506.00
2023-05-11T13:35:26.782Z,95504.00
2023-05-11T13:36:27.765Z,95506.00
2023-05-11T13:37:26.763Z,95504.00
2023-05-11T13:38:27.774Z,95506.00
2023-05-11T13:39:27.809Z,95504.00
2023-05-11T13:40:26.796Z,95502.00
2023-05-11T13:41:27.814Z,95500.00
2023-05-11T13:42:26.816Z,95500.00
2023-05-11T13:43:26.815Z,95502.00
2023-05-11T13:44:27.848Z,95502.00
2023-05-11T13:45:26.847Z,95504.00
2023-05-11T13:46:27.900Z,95504.00
2023-05-11T13:47:27.945Z,95502.00
2023-05-11T13:48:27.876Z,95504.00
2023-05-11T13:49:26.858Z,95504.00
2023-05-11T13:50:26.884Z,95502.00
2023-05-11T13:51:27.896Z,95500.00
2023-05-11T13:52:27.903Z,95498.00
2023-05-11T13:53:27.883Z,95500.00
2023-05-11T13:54:27.891Z,95502.00
2023-05-11T13:55:27.901Z,95502.00
2023-05-11T13:56:26.902Z,95500.00
2023-05-11T13:57:26.945Z,95500.00
2023-05-11T13:58:26.884Z,95496.00
2023-05-11T13:59:26.972Z,95494.00
2023-05-11T14:00:26.870Z,95494.00
2023-05-11T14:01:26.948Z,95494.00
2023-05-11T14:02:28.028Z,95494.00
2023-05-11T14:03:28.006Z,95492.00
2023-05-11T14:04:27.909Z,95490.00
2023-05-11T14:05:27.878Z,95490.00
2023-05-11T14:06:27.891Z,95490.00
2023-05-11T14:07:39.031Z,95490.00
2023-05-11T14:08:27.895Z,95490.00
2023-05-11T14:09:26.891Z,95492.00
2023-05-11T14:10:27.877Z,95488.00
2023-05-11T14:11:26.913Z,95490.00
2023-05-11T14:12:27.866Z,95488.00
2023-05-11T14:13:26.866Z,95490.00
2023-05-11T14:14:27.865Z,95484.00
2023-05-11T14:15:27.844Z,95480.00
2023-05-11T14:16:26.833Z,95482.00
2023-05-11T14:17:27.874Z,95484.00
2023-05-11T14:18:27.996Z,95482.00
2023-05-11T14:19:26.885Z,95484.00
2023-05-11T14:20:27.821Z,95482.00
2023-05-11T14:21:27.801Z,95480.00
2023-05-11T14:22:27.795Z,95480.00
2023-05-11T14:23:27.828Z,95478.00
2023-05-11T14:24:27.785Z,95478.00
2023-05-11T14:25:27.775Z,95477.00
2023-05-11T14:26:26.815Z,95477.00
2023-05-11T14:27:26.746Z,95477.00
2023-05-11T14:28:27.738Z,95478.00
2023-05-11T14:29:26.755Z,95478.00
2023-05-11T14:30:26.746Z,95477.00
2023-05-11T14:31:27.808Z,95478.00
2023-05-11T14:32:27.723Z,95478.00
2023-05-11T14:33:26.738Z,95480.00
2023-05-11T14:34:27.746Z,95480.00
2023-05-11T14:35:27.716Z,95478.00
2023-05-11T14:36:26.694Z,95477.00
2023-05-11T14:37:26.676Z,95478.00
2023-05-11T14:38:26.704Z,95478.00
2023-05-11T14:39:27.772Z,95477.00
2023-05-11T14:40:27.701Z,95478.00
2023-05-11T14:41:26.670Z,95480.00
2023-05-11T14:42:27.703Z,95478.00
2023-05-11T14:43:26.663Z,95478.00
2023-05-11T14:44:27.646Z,95477.00
2023-05-11T14:45:26.642Z,95478.00
2023-05-11T14:46:27.059Z,95478.00
2023-05-11T14:47:27.713Z,95477.00
2023-05-11T14:48:27.771Z,95478.00
2023-05-11T14:49:27.630Z,95477.00
2023-05-11T14:50:26.630Z,95477.00
2023-05-11T14:51:27.604Z,95477.00
2023-05-11T14:52:28.148Z,95478.00
2023-05-11T14:53:26.626Z,95477.00
2023-05-11T14:54:27.581Z,95477.00
2023-05-11T14:55:26.645Z,95478.00
2023-05-11T14:56:27.572Z,95478.00
2023-05-11T14:57:26.577Z,95475.00
2023-05-11T14:58:27.586Z,95472.00
2023-05-11T14:59:27.542Z,95475.00
2023-05-11T15:00:27.558Z,95475.00
2023-05-11T15:01:27.597Z,95472.00
2023-05-11T15:02:26.574Z,95475.00
2023-05-11T15:03:26.563Z,95475.00
2023-05-11T15:04:27.546Z,95475.00
2023-05-11T15:05:27.513Z,95477.00
2023-05-11T15:06:27.504Z,95477.00
2023-05-11T15:07:27.509Z,95477.00
2023-05-11T15:08:30.544Z,95477.00
2023-05-11T15:09:27.471Z,95477.00
2023-05-11T15:10:27.486Z,95477.00
2023-05-11T15:11:27.485Z,95477.00
2023-05-11T15:12:27.451Z,95478.00
2023-05-11T15:13:26.486Z,95475.00
2023-05-11T15:14:27.441Z,95477.00
2023-05-11T15:15:26.442Z,95478.00
2023-05-11T15:16:27.483Z,95477.00
2023-05-11T15:17:26.470Z,95477.00
2023-05-11T15:18:27.489Z,95477.00
2023-05-11T15:19:26.457Z,95472.00
2023-05-11T15:20:27.411Z,95477.00
2023-05-11T15:21:26.411Z,95477.00
2023-05-11T15:22:26.389Z,95478.00
2023-05-11T15:23:26.365Z,95475.00
2023-05-11T15:24:27.399Z,95477.00
2023-05-11T15:25:26.401Z,95477.00
2023-05-11T15:26:27.367Z,95478.00
2023-05-11T15:27:26.384Z,95478.00
2023-05-11T15:28:27.333Z,95480.00
2023-05-11T15:29:27.353Z,95478.00
2023-05-11T18:08:24.484Z,95453.00
2023-05-11T18:09:25.199Z,95453.00
2023-05-11T18:10:25.302Z,95451.00
2023-05-11T18:11:25.258Z,95451.00
2023-05-11T18:12:24.300Z,95451.00
2023-05-11T18:13:24.315Z,95453.00
2023-05-11T18:14:25.353Z,95457.00
2023-05-11T18:15:25.353Z,95461.00
2023-05-11T18:16:25.410Z,95455.00
2023-05-11T18:17:25.510Z,95457.00
2023-05-11T18:18:24.536Z,95455.00
2023-05-11T18:19:25.554Z,95459.00
2023-05-11T18:20:25.622Z,95457.00
2023-05-11T18:21:25.651Z,95457.00
2023-05-11T18:22:24.717Z,95455.00
2023-05-11T18:23:25.759Z,95459.00
2023-05-11T18:24:26.052Z,95453.00
2023-05-11T18:25:25.863Z,95453.00
2023-05-11T18:26:25.939Z,95451.00
2023-05-11T18:27:25.977Z,95451.00
2023-05-11T18:28:26.093Z,95453.00
2023-05-11T18:29:25.131Z,95455.00
2023-05-11T18:30:26.231Z,95457.00
2023-05-11T18:31:25.289Z,95457.00
2023-05-11T18:32:25.278Z,95453.00
2023-05-11T18:33:26.348Z,95453.00
2023-05-11T18:34:26.448Z,95451.00
2023-05-11T18:35:26.443Z,95455.00
2023-05-11T18:36:26.515Z,95449.00
2023-05-11T18:37:25.595Z,95453.00
2023-05-11T18:38:25.624Z,95457.00
2023-05-11T18:39:25.676Z,95457.00
2023-05-11T18:40:26.764Z,95463.00
2023-05-11T18:41:26.782Z,95457.00
2023-05-11T18:42:26.830Z,95457.00
2023-05-11T18:43:26.901Z,95455.00
2023-05-11T18:44:27.334Z,95455.00
2023-05-11T18:45:26.019Z,95455.00
2023-05-11T18:46:26.120Z,95457.00
2023-05-11T18:47:26.149Z,95457.00
2023-05-11T18:48:27.198Z,95453.00
2023-05-11T18:49:27.249Z,95455.00
2023-05-11T18:50:26.306Z,95459.00
2023-05-11T18:51:27.386Z,95461.00
2023-05-11T18:52:26.448Z,95461.00
2023-05-11T18:53:27.510Z,95459.00
2023-05-11T18:54:27.586Z,95457.00
2023-05-11T18:55:30.864Z,95459.00
2023-05-11T18:56:26.648Z,95459.00
2023-05-11T18:57:27.602Z,95467.00
2023-05-11T18:58:26.614Z,95465.00
2023-05-11T18:59:26.594Z,95463.00
2023-05-11T19:00:26.590Z,95463.00
2023-05-11T19:01:36.493Z,95465.00
2023-05-11T19:02:27.670Z,95465.00
2023-05-11T19:03:27.696Z,95463.00
2023-05-11T19:04:27.565Z,95463.00
2023-05-11T19:05:26.557Z,95463.00
2023-05-11T19:06:27.542Z,95465.00
2023-05-11T19:07:27.616Z,95461.00
2023-05-11T19:08:26.552Z,95467.00
2023-05-11T19:09:27.513Z,95469.00
2023-05-11T19:10:26.512Z,95470.00
2023-05-11T19:11:27.494Z,95470.00
2023-05-11T19:12:27.542Z,95469.00
2023-05-11T19:13:27.488Z,95465.00
2023-05-11T19:14:26.473Z,95470.00
2023-05-11T19:15:26.495Z,95472.00
2023-05-11T19:16:27.502Z,95469.00
2023-05-11T19:17:27.506Z,95469.00
2023-05-11T19:18:27.521Z,95472.00
2023-05-11T19:19:26.430Z,95470.00
2023-05-11T19:20:27.427Z,95469.00
2023-05-11T19:21:27.437Z,95470.00
2023-05-11T19:22:27.438Z,95478.00
2023-05-11T19:23:27.459Z,95478.00
2023-05-11T19:24:26.526Z,95477.00
2023-05-11T19:25:27.563Z,95477.00
2023-05-11T19:26:26.606Z,95472.00